createdAt,value
2018-06-20T00:00:19.145Z,18.20
2018-06-20T00:02:47.381Z,18.20
2018-06-20T00:05:15.650Z,18.30
2018-06-20T00:07:43.836Z,18.30
2018-06-20T00:10:12.101Z,18.40
2018-06-20T00:12:40.372Z,18.50
2018-06-20T00:15:08.617Z,18.70
2018-06-20T00:17:36.889Z,18.70
2018-06-20T00:20:05.129Z,18.60
2018-06-20T00:22:33.356Z,18.60
2018-06-20T00:25:01.546Z,18.50
2018-06-20T00:27:29.745Z,18.40
2018-06-20T00:29:57.917Z,18.40
2018-06-20T00:32:26.184Z,18.50
2018-06-20T00:34:54.493Z,18.40
2018-06-20T00:37:22.673Z,18.50
2018-06-20T00:39:50.949Z,18.40
2018-06-20T00:42:19.165Z,18.40
2018-06-20T00:44:47.368Z,18.40
2018-06-20T00:47:15.580Z,18.50
2018-06-20T00:49:43.876Z,18.50
2018-06-20T00:52:12.089Z,18.40
2018-06-20T00:54:40.281Z,18.40
2018-06-20T00:57:08.511Z,18.20
2018-06-20T00:59:36.701Z,18.10
2018-06-20T01:02:05.025Z,18.00
2018-06-20T01:04:33.242Z,18.00
2018-06-20T01:07:01.598Z,18.10
2018-06-20T01:09:29.852Z,18.10
2018-06-20T01:11:58.150Z,18.00
2018-06-20T01:14:26.340Z,17.90
2018-06-20T01:16:54.682Z,17.90
2018-06-20T01:19:22.901Z,18.00
2018-06-20T01:24:19.111Z,17.90
2018-06-20T01:26:47.328Z,17.90
2018-06-20T01:29:15.525Z,17.80
2018-06-20T01:31:43.739Z,17.70
2018-06-20T01:34:18.583Z,17.60
2018-06-20T01:36:46.817Z,17.70
2018-06-20T01:39:15.012Z,17.80
2018-06-20T01:41:43.252Z,17.90
2018-06-20T01:44:11.497Z,17.80
2018-06-20T01:46:39.693Z,17.80
2018-06-20T01:49:07.915Z,17.70
2018-06-20T01:51:36.124Z,17.70
2018-06-20T01:54:04.353Z,17.80
2018-06-20T01:56:32.538Z,17.70
2018-06-20T01:59:00.793Z,17.50
2018-06-20T02:01:29.002Z,17.30
2018-06-20T02:03:57.301Z,17.30
2018-06-20T02:06:25.645Z,17.20
2018-06-20T02:08:57.796Z,17.30
2018-06-20T02:11:26.697Z,17.30
2018-06-20T02:13:54.945Z,17.40
2018-06-20T02:16:23.156Z,17.40
2018-06-20T02:18:51.373Z,17.40
2018-06-20T02:21:19.624Z,17.40
2018-06-20T02:23:47.845Z,17.40
2018-06-20T02:26:16.063Z,17.30
2018-06-20T02:28:44.367Z,17.00
2018-06-20T02:31:12.559Z,16.80
2018-06-20T02:33:40.790Z,16.90
2018-06-20T02:36:14.492Z,17.00
2018-06-20T02:38:42.726Z,17.00
2018-06-20T02:41:11.030Z,17.00
2018-06-20T02:43:39.240Z,17.00
2018-06-20T02:46:07.529Z,16.90
2018-06-20T02:48:35.781Z,16.80
2018-06-20T02:51:04.063Z,16.70
2018-06-20T02:53:32.249Z,16.70
2018-06-20T02:56:00.479Z,16.70
2018-06-20T02:58:28.710Z,16.60
2018-06-20T03:00:56.962Z,16.50
2018-06-20T03:03:25.197Z,16.60
2018-06-20T03:05:53.373Z,16.30
2018-06-20T03:08:21.605Z,16.10
2018-06-20T03:10:49.802Z,15.90
2018-06-20T03:13:18.021Z,15.80
2018-06-20T03:15:46.245Z,15.80
2018-06-20T03:18:14.508Z,16.00
2018-06-20T03:20:42.737Z,16.10
2018-06-20T03:25:38.972Z,16.40
2018-06-20T03:28:07.137Z,16.20
2018-06-20T03:30:35.985Z,16.30
2018-06-20T03:33:04.213Z,16.40
2018-06-20T03:35:32.456Z,16.30
2018-06-20T03:38:00.715Z,16.30
2018-06-20T03:40:28.929Z,16.30
2018-06-20T03:42:57.193Z,16.30
2018-06-20T03:45:25.469Z,16.30
2018-06-20T03:47:53.699Z,16.30
2018-06-20T03:50:21.997Z,16.30
2018-06-20T03:52:50.479Z,16.30
2018-06-20T03:55:18.725Z,16.30
2018-06-20T03:57:46.907Z,16.40
2018-06-20T04:00:15.149Z,16.40
2018-06-20T04:02:43.963Z,16.40
2018-06-20T04:05:12.506Z,16.30
2018-06-20T04:07:41.259Z,16.30
2018-06-20T04:10:09.501Z,16.40
2018-06-20T04:12:38.045Z,16.40
2018-06-20T04:15:06.297Z,16.60
2018-06-20T04:17:34.493Z,16.70
2018-06-20T04:20:02.740Z,16.70
2018-06-20T04:22:30.997Z,16.40
2018-06-20T04:24:59.213Z,16.40
2018-06-20T04:27:27.449Z,16.50
2018-06-20T04:29:55.741Z,16.60
2018-06-20T04:32:23.964Z,16.70
2018-06-20T04:34:52.261Z,16.80
2018-06-20T04:37:20.522Z,16.90
2018-06-20T04:39:48.720Z,17.00
2018-06-20T04:42:16.937Z,17.10
2018-06-20T04:44:45.180Z,17.20
2018-06-20T04:47:13.424Z,17.20
2018-06-20T04:49:41.659Z,17.20
2018-06-20T04:52:10.441Z,17.20
2018-06-20T04:54:38.794Z,17.20
2018-06-20T04:57:07.090Z,17.30
2018-06-20T04:59:35.312Z,17.40
2018-06-20T05:02:03.554Z,17.50
2018-06-20T05:04:31.747Z,17.70
2018-06-20T05:06:59.973Z,17.90
2018-06-20T05:09:28.318Z,18.00
2018-06-20T05:11:56.550Z,18.20
2018-06-20T05:14:24.766Z,18.10
2018-06-20T05:16:52.961Z,18.20
2018-06-20T05:19:21.208Z,18.30
2018-06-20T05:21:49.400Z,18.40
2018-06-20T05:24:17.609Z,18.70
2018-06-20T05:26:45.812Z,19.10
2018-06-20T05:29:14.092Z,19.40
2018-06-20T05:31:42.356Z,19.70
2018-06-20T05:34:10.575Z,19.90
2018-06-20T05:36:38.829Z,20.10
2018-06-20T05:39:08.620Z,20.40
2018-06-20T05:41:36.946Z,20.90
2018-06-20T05:44:05.614Z,21.00
2018-06-20T05:46:33.847Z,21.50
2018-06-20T05:49:02.155Z,21.90
2018-06-20T05:51:30.352Z,22.10
2018-06-20T05:53:59.073Z,21.90
2018-06-20T05:56:27.297Z,21.90
2018-06-20T05:58:55.581Z,22.30
2018-06-20T06:01:23.805Z,22.60
2018-06-20T06:03:52.052Z,22.60
2018-06-20T06:06:21.360Z,22.80
2018-06-20T06:08:49.605Z,23.00
2018-06-20T06:11:17.854Z,23.10
2018-06-20T06:13:46.117Z,23.10
2018-06-20T06:16:14.376Z,23.50
2018-06-20T06:18:42.619Z,23.50
2018-06-20T06:21:10.840Z,23.50
2018-06-20T06:23:39.079Z,23.50
2018-06-20T06:26:07.293Z,23.60
2018-06-20T06:28:35.565Z,23.70
2018-06-20T06:31:03.768Z,23.80
2018-06-20T06:33:32.028Z,23.60
2018-06-20T06:36:00.315Z,23.70
2018-06-20T06:38:28.518Z,23.90
2018-06-20T06:40:56.775Z,24.30
2018-06-20T06:43:24.993Z,24.50
2018-06-20T06:45:53.259Z,24.80
2018-06-20T06:48:21.558Z,25.30
2018-06-20T06:50:49.803Z,25.10
2018-06-20T06:53:18.056Z,25.20
2018-06-20T06:55:46.298Z,25.00
2018-06-20T06:58:14.732Z,24.90
2018-06-20T07:00:43.040Z,25.10
2018-06-20T07:03:11.326Z,25.50
2018-06-20T07:05:39.573Z,25.70
2018-06-20T07:08:07.802Z,25.70
2018-06-20T07:10:36.133Z,25.80
2018-06-20T07:13:04.333Z,25.50
2018-06-20T07:15:32.660Z,25.20
2018-06-20T07:18:00.849Z,24.90
2018-06-20T07:20:29.109Z,25.10
2018-06-20T07:22:57.373Z,25.50
2018-06-20T07:25:25.635Z,25.30
2018-06-20T07:27:53.893Z,25.60
2018-06-20T07:30:22.124Z,25.70
2018-06-20T07:32:50.383Z,25.30
2018-06-20T07:35:18.663Z,25.30
2018-06-20T07:37:46.991Z,25.30
2018-06-20T07:40:15.247Z,25.30
2018-06-20T07:42:43.493Z,25.10
2018-06-20T07:45:11.813Z,25.10
2018-06-20T07:47:40.046Z,25.20
2018-06-20T07:50:08.341Z,25.30
2018-06-20T07:52:36.580Z,25.20
2018-06-20T07:55:04.888Z,25.80
2018-06-20T07:57:33.185Z,26.20
2018-06-20T08:00:07.082Z,26.20
2018-06-20T08:02:52.187Z,26.50
2018-06-20T08:05:25.785Z,26.60
2018-06-20T08:07:59.518Z,26.40
2018-06-20T08:10:33.264Z,26.20
2018-06-20T08:13:07.099Z,26.00
2018-06-20T08:15:40.864Z,25.70
2018-06-20T08:18:14.742Z,25.70
2018-06-20T08:20:42.990Z,25.60
2018-06-20T08:23:11.205Z,25.90
2018-06-20T08:25:39.618Z,26.10
2018-06-20T08:30:35.961Z,26.70
2018-06-20T08:33:04.200Z,27.20
2018-06-20T08:35:33.473Z,26.80
2018-06-20T08:38:01.716Z,26.40
2018-06-20T08:40:29.950Z,26.00
2018-06-20T08:42:58.239Z,26.20
2018-06-20T08:45:26.518Z,26.50
2018-06-20T08:47:54.735Z,26.60
2018-06-20T08:50:23.000Z,26.90
2018-06-20T08:55:19.237Z,27.30
2018-06-20T08:57:47.512Z,27.60
2018-06-20T09:00:20.312Z,27.50
2018-06-20T09:02:48.580Z,27.20
2018-06-20T09:05:22.373Z,27.00
2018-06-20T09:07:56.152Z,26.90
2018-06-20T09:10:29.777Z,26.60
2018-06-20T09:13:03.472Z,26.50
2018-06-20T09:15:37.322Z,26.80
2018-06-20T09:18:11.137Z,27.20
2018-06-20T09:20:39.378Z,27.60
2018-06-20T09:23:07.648Z,28.00
2018-06-20T09:25:36.143Z,28.20
2018-06-20T09:28:04.453Z,27.60
2018-06-20T09:30:32.717Z,26.90
2018-06-20T09:33:00.977Z,27.20
2018-06-20T09:35:29.644Z,27.00
2018-06-20T09:37:57.910Z,27.00
2018-06-20T09:40:26.224Z,26.90
2018-06-20T09:42:54.557Z,26.80
2018-06-20T09:45:22.806Z,27.10
2018-06-20T09:47:51.557Z,26.80
2018-06-20T09:50:25.244Z,26.70
2018-06-20T09:52:53.517Z,27.00
2018-06-20T09:55:21.102Z,27.10
2018-06-20T09:57:49.567Z,26.90
2018-06-20T10:00:23.392Z,26.80
2018-06-20T10:02:57.336Z,26.90
2018-06-20T10:05:31.069Z,27.10
2018-06-20T10:08:04.916Z,27.40
2018-06-20T10:10:38.793Z,27.60
2018-06-20T10:13:12.193Z,27.90
2018-06-20T10:15:40.408Z,27.30
2018-06-20T10:18:08.653Z,26.90
2018-06-20T10:20:36.853Z,27.10
2018-06-20T10:23:05.138Z,27.00
2018-06-20T10:25:33.322Z,27.00
2018-06-20T10:28:01.627Z,26.70
2018-06-20T10:30:29.867Z,27.00
2018-06-20T10:32:58.098Z,27.20
2018-06-20T10:35:26.342Z,27.30
2018-06-20T10:37:54.568Z,27.60
2018-06-20T10:40:22.797Z,27.30
2018-06-20T10:42:50.997Z,27.20
2018-06-20T10:45:24.616Z,27.30
2018-06-20T10:47:52.804Z,27.50
2018-06-20T10:50:21.033Z,27.50
2018-06-20T10:52:49.364Z,27.70
2018-06-20T10:55:18.292Z,27.80
2018-06-20T10:57:51.913Z,27.90
2018-06-20T11:00:26.253Z,27.80
2018-06-20T11:02:59.833Z,28.00
2018-06-20T11:05:33.498Z,28.20
2018-06-20T11:08:07.160Z,28.20
2018-06-20T11:10:40.958Z,28.50
2018-06-20T11:13:11.582Z,28.90
2018-06-20T11:15:39.903Z,29.00
2018-06-20T11:18:08.212Z,28.60
2018-06-20T11:20:41.774Z,28.90
2018-06-20T11:23:10.112Z,28.90
2018-06-20T11:25:38.390Z,28.90
2018-06-20T11:28:10.633Z,29.10
2018-06-20T11:30:39.342Z,29.10
2018-06-20T11:33:07.598Z,28.90
2018-06-20T11:35:36.036Z,28.80
2018-06-20T11:38:04.410Z,28.80
2018-06-20T11:40:32.833Z,28.90
2018-06-20T11:43:01.592Z,29.00
2018-06-20T11:45:35.394Z,29.20
2018-06-20T11:48:03.721Z,29.20
2018-06-20T11:50:31.924Z,29.30
2018-06-20T11:53:04.362Z,29.10
2018-06-20T11:55:37.725Z,28.80
2018-06-20T11:58:12.068Z,28.80
2018-06-20T12:00:45.898Z,28.90
2018-06-20T12:03:19.810Z,29.20
2018-06-20T12:05:53.862Z,29.30
2018-06-20T12:08:27.668Z,29.30
2018-06-20T12:11:01.313Z,29.40
2018-06-20T12:13:35.195Z,29.70
2018-06-20T12:16:09.052Z,29.60
2018-06-20T12:18:42.824Z,29.70
2018-06-20T12:21:16.400Z,29.80
2018-06-20T12:23:50.276Z,29.80
2018-06-20T12:26:23.942Z,29.90
2018-06-20T12:28:57.647Z,29.90
2018-06-20T12:31:31.368Z,30.20
2018-06-20T12:34:05.042Z,30.40
2018-06-20T12:36:38.678Z,29.90
2018-06-20T12:39:07.065Z,29.20
2018-06-20T12:41:40.874Z,29.60
2018-06-20T12:44:14.551Z,30.00
2018-06-20T12:46:46.925Z,30.00
2018-06-20T12:49:18.425Z,29.60
2018-06-20T12:51:47.517Z,29.30
2018-06-20T12:54:15.775Z,29.30
2018-06-20T12:56:44.052Z,29.60
2018-06-20T12:59:13.338Z,29.70
2018-06-20T13:01:41.590Z,29.70
2018-06-20T13:04:09.905Z,29.20
2018-06-20T13:06:38.173Z,29.40
2018-06-20T13:09:09.713Z,29.60
2018-06-20T13:11:38.006Z,29.50
2018-06-20T13:14:06.336Z,29.70
2018-06-20T13:16:34.575Z,30.20
2018-06-20T13:19:02.875Z,30.40
2018-06-20T13:21:31.109Z,30.30
2018-06-20T13:23:59.357Z,30.10
2018-06-20T13:26:27.641Z,30.00
2018-06-20T13:28:55.893Z,30.20
2018-06-20T13:31:29.661Z,30.00
2018-06-20T13:34:03.400Z,30.20
2018-06-20T13:36:37.140Z,30.60
2018-06-20T13:39:12.834Z,30.60
2018-06-20T13:41:47.036Z,30.50
2018-06-20T13:44:20.769Z,30.30
2018-06-20T13:46:54.489Z,30.10
2018-06-20T13:49:22.785Z,30.00
2018-06-20T13:51:51.060Z,30.00
2018-06-20T13:54:19.253Z,29.80
2018-06-20T13:56:47.495Z,30.40
2018-06-20T13:59:15.778Z,30.00
2018-06-20T14:01:44.045Z,30.00
2018-06-20T14:04:12.304Z,30.30
2018-06-20T14:06:41.041Z,30.20
2018-06-20T14:09:10.226Z,30.10
2018-06-20T14:11:38.601Z,29.80
2018-06-20T14:14:06.884Z,29.40
2018-06-20T14:16:35.073Z,29.60
2018-06-20T14:19:03.360Z,29.20
2018-06-20T14:21:36.988Z,29.40
2018-06-20T14:24:06.909Z,28.90
2018-06-20T14:26:35.677Z,28.80
2018-06-20T14:29:03.913Z,28.90
2018-06-20T14:31:37.664Z,28.70
2018-06-20T14:34:11.281Z,28.80
2018-06-20T14:39:18.530Z,29.50
2018-06-20T14:41:52.197Z,30.00
2018-06-20T14:44:20.432Z,29.50
2018-06-20T14:46:48.729Z,29.00
2018-06-20T14:49:17.013Z,28.90
2018-06-20T14:51:45.245Z,29.10
2018-06-20T14:54:13.465Z,29.40
2018-06-20T14:56:41.731Z,29.20
2018-06-20T14:59:09.934Z,29.20
2018-06-20T15:01:38.200Z,29.10
2018-06-20T15:04:06.470Z,29.50
2018-06-20T15:06:34.666Z,29.80
2018-06-20T15:09:03.200Z,29.90
2018-06-20T15:11:31.401Z,29.60
2018-06-20T15:13:59.690Z,29.40
2018-06-20T15:16:33.499Z,29.20
2018-06-20T15:19:01.750Z,29.30
2018-06-20T15:21:29.969Z,29.00
2018-06-20T15:23:58.211Z,28.80
2018-06-20T15:26:31.901Z,28.80
2018-06-20T15:29:05.473Z,28.40
2018-06-20T15:31:39.229Z,28.20
2018-06-20T15:34:12.847Z,28.20
2018-06-20T15:36:46.792Z,28.00
2018-06-20T15:39:15.031Z,28.00
2018-06-20T15:41:43.264Z,27.70
2018-06-20T15:44:11.493Z,27.70
2018-06-20T15:46:39.784Z,27.70
2018-06-20T15:49:08.013Z,27.50
2018-06-20T15:51:36.276Z,27.30
2018-06-20T15:54:04.529Z,27.00
2018-06-20T15:56:32.764Z,27.10
2018-06-20T15:59:01.066Z,27.20
2018-06-20T16:01:29.273Z,27.00
2018-06-20T16:03:57.529Z,27.10
2018-06-20T16:06:25.761Z,27.30
2018-06-20T16:08:59.368Z,27.20
2018-06-20T16:11:27.640Z,27.10
2018-06-20T16:13:55.913Z,27.00
2018-06-20T16:16:24.245Z,27.00
2018-06-20T16:18:58.089Z,27.00
2018-06-20T16:21:31.711Z,27.00
2018-06-20T16:24:05.415Z,26.90
2018-06-20T16:26:39.126Z,27.00
2018-06-20T16:29:12.721Z,26.90
2018-06-20T16:31:41.336Z,26.90
2018-06-20T16:34:09.639Z,26.70
2018-06-20T16:36:37.901Z,26.70
2018-06-20T16:39:06.978Z,26.50
2018-06-20T16:41:35.206Z,26.40
2018-06-20T16:44:03.673Z,26.50
2018-06-20T16:46:31.885Z,26.50
2018-06-20T16:49:00.252Z,26.40
2018-06-20T16:51:28.517Z,26.50
2018-06-20T16:53:56.711Z,26.50
2018-06-20T16:56:24.965Z,26.40
2018-06-20T16:58:54.160Z,26.20
2018-06-20T17:01:27.897Z,26.20
2018-06-20T17:03:56.623Z,26.20
2018-06-20T17:06:25.478Z,26.10
2018-06-20T17:08:54.376Z,26.10
2018-06-20T17:11:23.717Z,26.20
2018-06-20T17:13:57.822Z,26.20
2018-06-20T17:16:32.094Z,26.10
2018-06-20T17:20:04.807Z,26.10
2018-06-20T17:22:39.027Z,26.10
2018-06-20T17:25:13.204Z,25.90
2018-06-20T17:27:42.129Z,25.90
2018-06-20T17:30:10.809Z,25.90
2018-06-20T17:32:39.064Z,25.90
2018-06-20T17:35:07.253Z,26.00
2018-06-20T17:37:35.489Z,26.00
2018-06-20T17:40:03.766Z,26.00
2018-06-20T17:42:32.005Z,25.90
2018-06-20T17:45:00.240Z,25.90
2018-06-20T17:47:28.454Z,26.00
2018-06-20T17:49:56.662Z,25.90
2018-06-20T17:52:24.922Z,25.90
2018-06-20T17:54:53.141Z,25.80
2018-06-20T17:57:21.341Z,25.80
2018-06-20T17:59:49.569Z,25.70
2018-06-20T18:02:17.790Z,25.60
2018-06-20T18:04:51.497Z,25.60
2018-06-20T18:07:25.311Z,25.60
2018-06-20T18:09:58.977Z,25.60
2018-06-20T18:12:37.632Z,25.60
2018-06-20T18:15:12.216Z,25.50
2018-06-20T18:17:40.951Z,25.50
2018-06-20T18:20:09.271Z,25.40
2018-06-20T18:22:37.450Z,25.30
2018-06-20T18:25:05.832Z,25.30
2018-06-20T18:27:34.089Z,25.20
2018-06-20T18:30:02.367Z,25.10
2018-06-20T18:32:30.582Z,25.10
2018-06-20T18:34:58.845Z,25.10
2018-06-20T18:37:27.121Z,25.00
2018-06-20T18:40:00.721Z,25.00
2018-06-20T18:42:29.206Z,24.90
2018-06-20T18:44:57.493Z,24.90
2018-06-20T18:47:31.182Z,24.90
2018-06-20T18:49:59.834Z,24.90
2018-06-20T18:52:28.100Z,24.90
2018-06-20T18:54:56.507Z,25.00
2018-06-20T18:58:32.014Z,24.90
2018-06-20T19:01:05.725Z,24.90
2018-06-20T19:03:39.558Z,24.90
2018-06-20T19:06:13.278Z,24.80
2018-06-20T19:08:46.955Z,24.70
2018-06-20T19:11:15.160Z,24.70
2018-06-20T19:13:43.417Z,24.60
2018-06-20T19:16:11.759Z,24.50
2018-06-20T19:18:40.150Z,24.40
2018-06-20T19:21:08.526Z,24.30
2018-06-20T19:23:36.769Z,24.30
2018-06-20T19:26:05.090Z,24.20
2018-06-20T19:28:33.292Z,24.10
2018-06-20T19:31:01.583Z,24.10
2018-06-20T19:33:29.862Z,24.00
2018-06-20T19:35:58.170Z,24.00
2018-06-20T19:38:26.385Z,23.90
2018-06-20T19:40:54.693Z,23.90
2018-06-20T19:48:18.948Z,23.80
2018-06-20T19:50:47.217Z,23.70
2018-06-20T19:53:15.417Z,23.60
2018-06-20T19:55:43.697Z,23.60
2018-06-20T19:58:11.925Z,23.60
2018-06-20T20:00:40.252Z,23.50
2018-06-20T20:03:08.560Z,23.50
2018-06-20T20:05:37.008Z,23.50
2018-06-20T20:08:05.224Z,23.40
2018-06-20T20:10:33.453Z,23.40
2018-06-20T20:13:01.742Z,23.30
2018-06-20T20:15:30.011Z,23.30
2018-06-20T20:17:58.225Z,23.30
2018-06-20T20:20:27.021Z,23.30
2018-06-20T20:22:55.265Z,23.30
2018-06-20T20:25:24.325Z,23.30
2018-06-20T20:27:52.825Z,23.20
2018-06-20T20:30:22.077Z,23.20
2018-06-20T20:32:50.496Z,23.20
2018-06-20T20:35:18.860Z,23.20
2018-06-20T20:37:47.145Z,23.20
2018-06-20T20:40:16.116Z,23.00
2018-06-20T20:42:44.302Z,23.00
2018-06-20T20:45:13.900Z,22.80
2018-06-20T20:47:42.541Z,22.60
2018-06-20T20:50:10.822Z,22.60
2018-06-20T20:52:39.420Z,22.60
2018-06-20T20:55:07.985Z,22.50
2018-06-20T20:57:36.197Z,22.40
2018-06-20T21:00:04.903Z,22.30
2018-06-20T21:02:33.093Z,22.20
2018-06-20T21:05:01.321Z,22.10
2018-06-20T21:07:29.542Z,21.90
2018-06-20T21:09:57.832Z,21.80
2018-06-20T21:12:26.066Z,21.70
2018-06-20T21:14:54.449Z,21.60
2018-06-20T21:17:22.918Z,21.60
2018-06-20T21:19:51.174Z,21.80
2018-06-20T21:22:20.116Z,21.80
2018-06-20T21:24:48.694Z,21.90
2018-06-20T21:27:17.337Z,21.90
2018-06-20T21:29:45.805Z,21.90
2018-06-20T21:32:14.054Z,21.90
2018-06-20T21:34:42.304Z,21.60
2018-06-20T21:37:10.538Z,21.40
2018-06-20T21:39:43.856Z,21.30
2018-06-20T21:42:17.279Z,21.20
2018-06-20T21:44:45.565Z,21.20
2018-06-20T21:47:16.426Z,21.30
2018-06-20T21:49:48.163Z,21.40
2018-06-20T21:52:17.134Z,21.50
2018-06-20T21:54:52.447Z,21.40
2018-06-20T21:57:20.920Z,21.30
2018-06-20T21:59:49.210Z,21.20
2018-06-20T22:02:17.469Z,21.10
2018-06-20T22:04:45.721Z,21.10
2018-06-20T22:07:13.991Z,21.20
2018-06-20T22:09:42.225Z,21.20
2018-06-20T22:12:10.474Z,21.10
2018-06-20T22:14:38.711Z,21.00
2018-06-20T22:17:07.017Z,20.90
2018-06-20T22:19:35.224Z,20.90
2018-06-20T22:22:03.503Z,21.00
2018-06-20T22:24:31.734Z,21.10
2018-06-20T22:27:00.011Z,20.90
2018-06-20T22:29:28.242Z,20.80
2018-06-20T22:31:56.623Z,20.80
2018-06-20T22:34:24.859Z,20.80
2018-06-20T22:36:53.205Z,20.70
2018-06-20T22:39:21.443Z,20.70
2018-06-20T22:41:49.711Z,20.60
2018-06-20T22:44:17.954Z,20.50
2018-06-20T22:46:46.205Z,20.40
2018-06-20T22:49:14.422Z,20.30
2018-06-20T22:51:42.695Z,20.40
2018-06-20T22:54:11.714Z,20.40
2018-06-20T22:56:40.018Z,20.40
2018-06-20T22:59:08.246Z,20.40
2018-06-20T23:01:36.519Z,20.30
2018-06-20T23:04:04.774Z,20.20
2018-06-20T23:06:33.007Z,20.20
2018-06-20T23:09:01.233Z,20.30
2018-06-20T23:11:33.890Z,20.20
2018-06-20T23:14:02.099Z,20.10
2018-06-20T23:16:30.375Z,20.00
2018-06-20T23:18:58.576Z,20.00
2018-06-20T23:21:26.833Z,19.90
2018-06-20T23:23:55.050Z,20.00
2018-06-20T23:26:23.546Z,20.00
2018-06-20T23:28:51.757Z,20.00
2018-06-20T23:31:19.977Z,19.90
2018-06-20T23:33:48.177Z,19.90
2018-06-20T23:36:16.394Z,20.00
2018-06-20T23:38:44.593Z,20.00
2018-06-20T23:41:13.148Z,20.00
2018-06-20T23:43:41.815Z,20.00
2018-06-20T23:48:38.045Z,19.80
2018-06-20T23:51:06.441Z,19.70
2018-06-20T23:53:34.671Z,19.50
2018-06-20T23:56:02.881Z,19.50
2018-06-20T23:58:31.140Z,19.40
